createdAt,value
2022-07-31T00:01:03.083Z,4.13
2022-07-31T00:03:31.551Z,3.38
2022-07-31T00:05:59.910Z,4.18
2022-07-31T00:08:28.332Z,3.60
2022-07-31T00:10:56.686Z,3.58
2022-07-31T00:13:58.012Z,4.72
2022-07-31T00:16:14.814Z,3.03
2022-07-31T00:18:45.679Z,3.40
2022-07-31T00:21:14.280Z,3.63
2022-07-31T00:23:42.649Z,3.40
2022-07-31T00:26:11.054Z,4.85
2022-07-31T00:28:40.817Z,3.72
2022-07-31T00:31:09.230Z,3.67
2022-07-31T00:33:37.547Z,3.78
2022-07-31T00:36:06.899Z,3.58
2022-07-31T00:38:35.374Z,3.45
2022-07-31T00:41:04.010Z,3.95
2022-07-31T00:43:32.623Z,3.80
2022-07-31T00:46:02.351Z,3.60
2022-07-31T00:48:31.125Z,3.88
2022-07-31T00:51:00.413Z,3.92
2022-07-31T00:53:28.802Z,3.95
2022-07-31T00:55:57.999Z,2.95
2022-07-31T00:58:26.697Z,3.67
2022-07-31T01:00:55.279Z,4.13
2022-07-31T01:03:25.095Z,3.88
2022-07-31T01:05:53.541Z,4.15
2022-07-31T01:08:21.958Z,3.72
2022-07-31T01:10:57.073Z,3.85
2022-07-31T01:13:32.815Z,5.03
2022-07-31T01:16:04.474Z,4.65
2022-07-31T01:18:37.060Z,4.07
2022-07-31T01:21:12.499Z,3.30
2022-07-31T01:24:11.725Z,3.72
2022-07-31T01:27:04.084Z,4.18
2022-07-31T01:29:38.449Z,3.70
2022-07-31T01:32:11.265Z,3.90
2022-07-31T01:34:45.154Z,3.70
2022-07-31T01:37:20.615Z,3.83
2022-07-31T01:39:53.858Z,4.53
2022-07-31T01:42:25.823Z,4.60
2022-07-31T01:45:01.071Z,4.57
2022-07-31T01:47:32.686Z,4.18
2022-07-31T01:50:04.747Z,4.20
2022-07-31T01:52:35.354Z,4.13
2022-07-31T01:55:05.511Z,4.88
2022-07-31T01:57:35.845Z,3.70
2022-07-31T02:00:33.370Z,5.18
2022-07-31T02:03:01.542Z,4.60
2022-07-31T02:05:41.473Z,3.75
2022-07-31T02:08:12.051Z,3.97
2022-07-31T02:10:45.472Z,4.57
2022-07-31T02:13:14.882Z,4.28
2022-07-31T02:15:46.035Z,3.75
2022-07-31T02:18:19.010Z,3.55
2022-07-31T02:21:15.410Z,4.20
2022-07-31T02:23:44.000Z,3.53
2022-07-31T02:26:16.604Z,3.42
2022-07-31T02:28:47.745Z,3.67
2022-07-31T02:31:19.561Z,3.55
2022-07-31T02:33:50.413Z,3.17
2022-07-31T02:36:22.216Z,5.57
2022-07-31T02:38:53.529Z,3.40
2022-07-31T02:41:22.758Z,3.70
2022-07-31T02:43:51.901Z,3.00
2022-07-31T02:46:24.101Z,4.10
2022-07-31T02:48:52.959Z,3.15
2022-07-31T02:51:24.437Z,3.38
2022-07-31T02:53:53.765Z,3.58
2022-07-31T02:56:25.733Z,3.25
2022-07-31T02:58:55.710Z,4.05
2022-07-31T03:01:28.801Z,3.17
2022-07-31T03:03:58.053Z,2.90
2022-07-31T03:06:29.197Z,3.28
2022-07-31T03:08:57.558Z,3.80
2022-07-31T03:11:27.222Z,3.45
2022-07-31T03:13:58.258Z,3.42
2022-07-31T03:16:30.851Z,4.40
2022-07-31T03:19:02.975Z,3.13
2022-07-31T03:21:32.902Z,3.28
2022-07-31T03:24:03.121Z,2.95
2022-07-31T03:26:32.329Z,2.80
2022-07-31T03:29:02.322Z,2.97
2022-07-31T03:31:32.329Z,3.65
2022-07-31T03:34:00.693Z,2.90
2022-07-31T03:36:30.584Z,4.03
2022-07-31T03:38:59.654Z,3.83
2022-07-31T03:41:39.946Z,3.40
2022-07-31T03:44:09.978Z,3.78
2022-07-31T03:46:40.211Z,4.18
2022-07-31T03:49:09.453Z,3.35
2022-07-31T03:51:38.118Z,2.97
2022-07-31T03:54:07.098Z,3.20
2022-07-31T03:56:58.797Z,3.40
2022-07-31T03:59:28.384Z,3.90
2022-07-31T04:02:05.443Z,4.63
2022-07-31T04:04:44.501Z,3.63
2022-07-31T04:07:12.918Z,4.28
2022-07-31T04:09:42.639Z,4.63
2022-07-31T04:12:12.378Z,3.33
2022-07-31T04:14:40.802Z,4.80
2022-07-31T04:17:10.634Z,3.92
2022-07-31T04:19:39.312Z,3.65
2022-07-31T04:22:09.005Z,4.43
2022-07-31T04:24:38.124Z,4.47
2022-07-31T04:27:12.243Z,3.30
2022-07-31T04:29:44.225Z,3.33
2022-07-31T04:32:13.988Z,4.32
2022-07-31T04:34:51.419Z,3.17
2022-07-31T04:37:19.855Z,4.80
2022-07-31T04:39:48.363Z,4.40
2022-07-31T04:42:16.781Z,3.75
2022-07-31T04:44:45.675Z,3.65
2022-07-31T04:47:15.457Z,5.13
2022-07-31T04:49:47.374Z,4.63
2022-07-31T04:52:18.237Z,3.17
2022-07-31T04:54:48.767Z,4.60
2022-07-31T04:57:21.378Z,3.20
2022-07-31T04:59:58.078Z,4.20
2022-07-31T05:02:29.942Z,3.15
2022-07-31T05:04:58.879Z,3.40
2022-07-31T05:07:36.593Z,3.15
2022-07-31T05:10:31.430Z,3.30
2022-07-31T05:12:59.903Z,3.55
2022-07-31T05:15:28.454Z,4.28
2022-07-31T05:17:59.618Z,5.25
2022-07-31T05:20:46.499Z,4.50
2022-07-31T05:23:31.469Z,3.80
2022-07-31T05:26:26.993Z,4.43
2022-07-31T05:28:58.549Z,4.18
2022-07-31T05:31:28.441Z,3.50
2022-07-31T05:34:00.112Z,3.72
2022-07-31T05:36:28.511Z,3.40
2022-07-31T05:38:56.894Z,4.13
2022-07-31T05:41:40.184Z,4.53
2022-07-31T05:44:08.496Z,3.97
2022-07-31T05:46:43.481Z,3.75
2022-07-31T05:49:13.318Z,4.28
2022-07-31T05:51:44.185Z,3.78
2022-07-31T05:54:12.610Z,3.80
2022-07-31T05:56:59.508Z,3.42
2022-07-31T05:59:41.770Z,4.22
2022-07-31T06:02:10.359Z,3.65
2022-07-31T06:05:00.516Z,4.68
2022-07-31T06:07:30.062Z,4.72
2022-07-31T06:09:58.561Z,4.05
2022-07-31T06:12:26.960Z,3.30
2022-07-31T06:14:55.321Z,4.10
2022-07-31T06:17:43.780Z,4.00
2022-07-31T06:20:23.194Z,5.93
2022-07-31T06:22:51.602Z,4.10
2022-07-31T06:25:20.131Z,4.50
2022-07-31T06:27:52.005Z,4.90
2022-07-31T06:30:27.966Z,4.10
2022-07-31T06:32:57.025Z,4.18
2022-07-31T06:35:27.153Z,3.95
2022-07-31T06:38:18.619Z,3.17
2022-07-31T06:41:05.691Z,3.65
2022-07-31T06:46:30.907Z,3.85
2022-07-31T06:49:34.509Z,4.18
2022-07-31T06:52:05.354Z,3.95
2022-07-31T06:54:34.327Z,3.85
2022-07-31T06:57:02.933Z,3.20
2022-07-31T06:59:39.965Z,3.40
2022-07-31T07:02:09.994Z,3.70
2022-07-31T07:04:57.376Z,4.07
2022-07-31T07:07:31.594Z,3.13
2022-07-31T07:10:00.769Z,3.50
2022-07-31T07:12:47.637Z,3.63
2022-07-31T07:15:16.519Z,3.53
2022-07-31T07:17:45.074Z,3.33
2022-07-31T07:20:18.463Z,4.57
2022-07-31T07:22:48.316Z,3.42
2022-07-31T07:25:29.718Z,3.53
2022-07-31T07:28:00.407Z,2.75
2022-07-31T07:30:29.475Z,3.03
2022-07-31T07:33:01.372Z,6.70
2022-07-31T07:35:33.916Z,4.03
2022-07-31T07:38:07.070Z,3.13
2022-07-31T07:40:38.145Z,2.85
2022-07-31T07:43:06.622Z,3.08
2022-07-31T07:45:35.113Z,4.03
2022-07-31T07:48:06.134Z,4.07
2022-07-31T07:50:55.734Z,3.47
2022-07-31T07:53:32.890Z,2.13
2022-07-31T07:56:33.383Z,3.00
2022-07-31T07:59:01.774Z,3.50
2022-07-31T08:01:48.595Z,3.55
2022-07-31T08:04:21.942Z,2.93
2022-07-31T08:06:50.286Z,4.13
2022-07-31T08:09:23.097Z,2.75
2022-07-31T08:12:10.218Z,3.58
2022-07-31T08:14:58.890Z,5.50
2022-07-31T08:17:45.302Z,4.03
2022-07-31T08:20:15.915Z,4.65
2022-07-31T08:22:44.349Z,4.70
2022-07-31T08:25:15.175Z,5.30
2022-07-31T08:27:47.924Z,6.95
2022-07-31T08:30:17.871Z,4.03
2022-07-31T08:32:46.285Z,4.15
2022-07-31T08:35:32.818Z,3.83
2022-07-31T08:38:04.377Z,4.85
2022-07-31T08:40:43.609Z,3.90
2022-07-31T08:44:02.129Z,3.88
2022-07-31T08:46:03.703Z,4.68
2022-07-31T08:48:40.814Z,3.00
2022-07-31T08:51:13.023Z,3.80
2022-07-31T08:54:08.916Z,4.85
2022-07-31T08:56:39.986Z,2.88
2022-07-31T08:59:08.972Z,3.22
2022-07-31T09:01:38.745Z,3.00
2022-07-31T09:04:07.422Z,3.28
2022-07-31T09:06:37.078Z,3.33
2022-07-31T09:09:06.328Z,2.83
2022-07-31T09:11:35.078Z,3.78
2022-07-31T09:14:29.895Z,3.65
2022-07-31T09:16:59.147Z,3.17
2022-07-31T09:19:52.431Z,3.63
2022-07-31T09:22:27.968Z,3.53
2022-07-31T09:25:13.099Z,3.80
2022-07-31T09:27:41.891Z,4.75
2022-07-31T09:30:12.737Z,4.97
2022-07-31T09:33:14.254Z,3.20
2022-07-31T09:36:03.897Z,4.40
2022-07-31T09:38:36.601Z,3.85
2022-07-31T09:42:01.397Z,4.55
2022-07-31T09:44:17.243Z,3.80
2022-07-31T09:46:51.419Z,3.80
2022-07-31T09:49:20.059Z,3.38
2022-07-31T09:51:49.038Z,3.72
2022-07-31T09:54:22.665Z,3.28
2022-07-31T09:56:57.311Z,5.22
2022-07-31T09:59:27.741Z,3.70
2022-07-31T10:01:57.898Z,5.65
2022-07-31T10:04:26.664Z,3.90
2022-07-31T10:06:57.269Z,4.07
2022-07-31T10:09:27.791Z,3.50
2022-07-31T10:12:20.663Z,4.15
2022-07-31T10:14:52.581Z,3.80
2022-07-31T10:17:28.246Z,5.90
2022-07-31T10:20:22.811Z,4.18
2022-07-31T10:23:15.350Z,3.63
2022-07-31T10:25:53.791Z,3.28
2022-07-31T10:28:23.970Z,3.78
2022-07-31T10:30:52.850Z,2.95
2022-07-31T10:33:43.079Z,4.15
2022-07-31T10:36:55.649Z,4.28
2022-07-31T10:39:43.440Z,4.38
2022-07-31T10:42:37.302Z,3.03
2022-07-31T10:45:08.458Z,3.47
2022-07-31T10:48:12.585Z,4.80
2022-07-31T10:51:10.893Z,4.32
2022-07-31T10:54:11.560Z,4.57
2022-07-31T10:57:04.568Z,4.40
2022-07-31T10:59:48.854Z,4.28
2022-07-31T11:02:52.676Z,4.43
2022-07-31T11:05:30.823Z,3.08
2022-07-31T11:08:19.801Z,4.20
2022-07-31T11:10:55.772Z,3.17
2022-07-31T11:13:50.499Z,4.07
2022-07-31T11:16:50.973Z,4.00
2022-07-31T11:19:41.810Z,4.88
2022-07-31T11:22:31.904Z,5.28
2022-07-31T11:25:02.227Z,4.05
2022-07-31T11:27:31.962Z,3.80
2022-07-31T11:30:10.711Z,4.25
2022-07-31T11:32:41.832Z,3.88
2022-07-31T11:35:10.218Z,2.95
2022-07-31T11:37:56.807Z,3.72
2022-07-31T11:40:27.903Z,4.32
2022-07-31T11:43:25.415Z,4.38
2022-07-31T11:45:48.216Z,4.07
2022-07-31T11:48:19.426Z,4.03
2022-07-31T11:50:49.614Z,3.95
2022-07-31T11:53:18.661Z,4.72
2022-07-31T11:55:50.676Z,4.72
2022-07-31T11:58:21.196Z,5.22
2022-07-31T12:00:51.587Z,4.60
2022-07-31T12:03:21.705Z,4.45
2022-07-31T12:05:52.359Z,5.30
2022-07-31T12:08:22.121Z,5.97
2022-07-31T12:10:53.880Z,4.80
2022-07-31T12:13:23.107Z,4.88
2022-07-31T12:15:56.477Z,4.05
2022-07-31T12:18:26.357Z,4.27
2022-07-31T12:20:56.869Z,3.67
2022-07-31T12:23:41.047Z,3.30
2022-07-31T12:26:12.835Z,4.07
2022-07-31T12:28:41.313Z,3.38
2022-07-31T12:31:09.744Z,3.28
2022-07-31T12:33:42.201Z,3.88
2022-07-31T12:36:15.078Z,3.17
2022-07-31T12:38:47.809Z,4.97
2022-07-31T12:41:18.610Z,4.68
2022-07-31T12:43:50.985Z,4.78
2022-07-31T12:46:35.663Z,3.80
2022-07-31T12:49:04.564Z,4.17
2022-07-31T12:51:45.206Z,3.60
2022-07-31T12:54:16.079Z,3.65
2022-07-31T12:56:47.430Z,3.45
2022-07-31T12:59:15.863Z,3.95
2022-07-31T13:01:44.273Z,4.43
2022-07-31T13:04:18.209Z,3.60
2022-07-31T13:06:52.094Z,3.63
2022-07-31T13:09:21.095Z,4.28
2022-07-31T13:11:57.348Z,3.28
2022-07-31T13:14:26.278Z,3.88
2022-07-31T13:16:56.026Z,3.33
2022-07-31T13:19:24.415Z,4.47
2022-07-31T13:21:52.793Z,3.67
2022-07-31T13:24:26.015Z,4.65
2022-07-31T13:26:58.656Z,4.28
2022-07-31T13:29:27.006Z,3.60
2022-07-31T13:31:55.544Z,4.07
2022-07-31T13:34:23.888Z,4.25
2022-07-31T13:36:52.268Z,5.00
2022-07-31T13:39:20.822Z,5.45
2022-07-31T13:41:49.142Z,3.45
2022-07-31T13:44:18.887Z,3.72
2022-07-31T13:46:47.313Z,4.00
2022-07-31T13:49:15.802Z,3.88
2022-07-31T13:51:44.221Z,3.80
2022-07-31T13:54:12.891Z,3.50
2022-07-31T13:56:43.492Z,4.03
2022-07-31T13:59:14.023Z,4.07
2022-07-31T14:02:03.188Z,3.72
2022-07-31T14:04:38.760Z,4.05
2022-07-31T14:07:09.109Z,3.30
2022-07-31T14:09:37.907Z,3.40
2022-07-31T14:12:07.087Z,3.60
2022-07-31T14:14:35.741Z,4.57
2022-07-31T14:17:05.495Z,3.95
2022-07-31T14:19:42.075Z,5.53
2022-07-31T14:22:14.284Z,4.18
2022-07-31T14:24:50.670Z,4.00
2022-07-31T14:27:20.722Z,4.50
2022-07-31T14:29:49.272Z,4.93
2022-07-31T14:32:19.617Z,4.03
2022-07-31T14:34:48.180Z,5.95
2022-07-31T14:37:16.619Z,4.30
2022-07-31T14:39:45.080Z,5.65
2022-07-31T14:42:13.665Z,4.32
2022-07-31T14:44:42.687Z,4.70
2022-07-31T14:47:11.706Z,3.60
2022-07-31T14:50:09.478Z,4.40
2022-07-31T14:52:30.549Z,4.05
2022-07-31T14:55:00.030Z,4.55
2022-07-31T14:57:29.792Z,4.90
2022-07-31T14:59:58.296Z,4.55
2022-07-31T15:02:26.858Z,4.18
2022-07-31T15:04:56.617Z,4.30
2022-07-31T15:07:46.276Z,4.25
2022-07-31T15:10:13.337Z,4.30
2022-07-31T15:12:42.894Z,4.80
2022-07-31T15:15:12.209Z,4.40
2022-07-31T15:17:40.602Z,3.83
2022-07-31T15:20:11.822Z,4.85
2022-07-31T15:22:40.246Z,4.72
2022-07-31T15:25:10.135Z,5.00
2022-07-31T15:27:38.458Z,4.65
2022-07-31T15:30:08.323Z,3.90
2022-07-31T15:32:37.925Z,4.22
2022-07-31T15:35:08.606Z,4.05
2022-07-31T15:37:40.341Z,4.50
2022-07-31T15:40:11.839Z,4.50
2022-07-31T15:42:41.891Z,4.75
2022-07-31T15:45:11.779Z,4.57
2022-07-31T15:47:41.524Z,3.70
2022-07-31T15:50:11.599Z,5.05
2022-07-31T15:52:42.631Z,6.05
2022-07-31T15:55:11.504Z,3.38
2022-07-31T15:57:39.983Z,5.30
2022-07-31T16:00:10.540Z,3.55
2022-07-31T16:02:42.564Z,3.95
2022-07-31T16:05:22.020Z,5.15
2022-07-31T16:08:29.177Z,4.53
2022-07-31T16:10:54.108Z,3.63
2022-07-31T16:13:23.942Z,4.35
2022-07-31T16:15:52.702Z,4.03
2022-07-31T16:18:21.634Z,4.38
2022-07-31T16:20:50.066Z,3.97
2022-07-31T16:23:19.786Z,5.72
2022-07-31T16:25:48.241Z,3.97
2022-07-31T16:28:16.638Z,4.50
2022-07-31T16:30:45.740Z,5.80
2022-07-31T16:33:14.291Z,4.88
2022-07-31T16:35:42.717Z,4.45
2022-07-31T16:38:11.082Z,4.03
2022-07-31T16:40:41.058Z,5.28
2022-07-31T16:43:48.683Z,4.00
2022-07-31T16:45:58.243Z,4.05
2022-07-31T16:48:26.603Z,4.40
2022-07-31T16:50:55.345Z,3.90
2022-07-31T16:54:09.799Z,4.45
2022-07-31T16:56:14.831Z,5.35
2022-07-31T16:58:43.715Z,5.25
2022-07-31T17:01:57.854Z,3.88
2022-07-31T17:04:04.187Z,4.13
2022-07-31T17:06:36.997Z,4.43
2022-07-31T17:09:17.480Z,4.05
2022-07-31T17:11:49.957Z,4.25
2022-07-31T17:14:19.725Z,3.50
2022-07-31T17:16:49.704Z,4.82
2022-07-31T17:19:42.544Z,3.65
2022-07-31T17:22:11.791Z,4.07
2022-07-31T17:24:50.297Z,3.92
2022-07-31T17:27:21.005Z,4.00
2022-07-31T17:29:49.764Z,3.88
2022-07-31T17:32:18.218Z,3.30
2022-07-31T17:34:49.221Z,3.50
2022-07-31T17:37:18.150Z,4.43
2022-07-31T17:39:46.592Z,4.57
2022-07-31T17:42:15.200Z,3.95
2022-07-31T17:47:07.065Z,2.88
2022-07-31T17:47:36.339Z,3.78
2022-07-31T17:50:05.261Z,3.63
2022-07-31T17:52:33.615Z,3.70
2022-07-31T17:55:02.676Z,3.78
2022-07-31T17:57:32.601Z,6.32
2022-07-31T18:00:03.170Z,5.22
2022-07-31T18:02:33.165Z,4.78
2022-07-31T18:05:01.602Z,5.05
2022-07-31T18:07:30.148Z,4.70
2022-07-31T18:09:58.765Z,4.03
2022-07-31T18:12:27.157Z,3.70
2022-07-31T18:14:55.545Z,4.75
2022-07-31T18:17:26.822Z,4.97
2022-07-31T18:19:55.308Z,4.03
2022-07-31T18:22:23.727Z,3.53
2022-07-31T18:24:52.111Z,4.18
2022-07-31T18:27:20.490Z,4.35
2022-07-31T18:29:56.030Z,3.92
2022-07-31T18:32:26.153Z,4.63
2022-07-31T18:34:54.612Z,4.32
2022-07-31T18:37:23.088Z,4.35
2022-07-31T18:39:51.470Z,4.35
2022-07-31T18:42:20.077Z,4.07
2022-07-31T18:44:48.558Z,3.55
2022-07-31T18:47:16.943Z,3.63
2022-07-31T18:51:01.666Z,3.55
2022-07-31T18:52:35.456Z,3.90
2022-07-31T18:55:03.907Z,5.30
2022-07-31T18:57:32.294Z,7.28
2022-07-31T19:00:00.626Z,7.15
2022-07-31T19:02:29.242Z,7.97
2022-07-31T19:04:59.498Z,5.97
2022-07-31T19:07:30.731Z,5.90
2022-07-31T19:10:07.790Z,6.28
2022-07-31T19:12:36.419Z,5.45
2022-07-31T19:15:05.555Z,5.70
2022-07-31T19:17:44.107Z,4.80
2022-07-31T19:20:44.539Z,5.22
2022-07-31T19:23:03.119Z,5.30
2022-07-31T19:26:02.031Z,5.13
2022-07-31T19:28:26.670Z,5.15
2022-07-31T19:30:59.016Z,5.00
2022-07-31T19:33:27.546Z,3.95
2022-07-31T19:36:01.772Z,4.40
2022-07-31T19:38:31.272Z,4.47
2022-07-31T19:40:59.803Z,4.50
2022-07-31T19:43:28.221Z,4.82
2022-07-31T19:46:02.383Z,4.72
2022-07-31T19:48:45.428Z,4.00
2022-07-31T19:51:17.089Z,4.55
2022-07-31T19:53:46.258Z,4.80
2022-07-31T19:56:20.505Z,5.38
2022-07-31T19:58:50.204Z,6.35
2022-07-31T20:01:20.061Z,7.18
2022-07-31T20:03:48.970Z,6.05
2022-07-31T20:06:18.785Z,7.45
2022-07-31T20:08:49.028Z,9.23
2022-07-31T20:11:17.715Z,6.28
2022-07-31T20:13:46.865Z,10.07
2022-07-31T20:16:15.699Z,7.35
2022-07-31T20:18:44.366Z,8.60
2022-07-31T20:21:12.705Z,7.38
2022-07-31T20:23:42.678Z,9.52
2022-07-31T20:26:16.430Z,7.85
2022-07-31T20:28:45.178Z,8.55
2022-07-31T20:31:15.868Z,8.75
2022-07-31T20:33:56.840Z,7.72
2022-07-31T20:36:26.808Z,7.00
2022-07-31T20:38:58.006Z,7.90
2022-07-31T20:41:27.311Z,6.95
2022-07-31T20:43:56.132Z,7.88
2022-07-31T20:46:24.570Z,9.43
2022-07-31T20:48:52.962Z,7.13
2022-07-31T20:51:23.159Z,6.38
2022-07-31T20:53:52.459Z,6.53
2022-07-31T20:56:22.576Z,6.97
2022-07-31T20:58:52.048Z,7.53
2022-07-31T21:01:21.051Z,8.40
2022-07-31T21:03:49.899Z,6.93
2022-07-31T21:06:19.325Z,6.63
2022-07-31T21:08:47.865Z,6.25
2022-07-31T21:11:16.289Z,6.30
2022-07-31T21:13:46.320Z,6.93
2022-07-31T21:16:14.843Z,8.15
2022-07-31T21:18:43.740Z,5.70
2022-07-31T21:21:12.617Z,5.97
2022-07-31T21:23:41.035Z,5.63
2022-07-31T21:26:10.304Z,5.80
2022-07-31T21:28:40.382Z,6.30
2022-07-31T21:31:10.561Z,7.00
2022-07-31T21:33:39.368Z,5.82
2022-07-31T21:36:08.808Z,5.43
2022-07-31T21:38:40.094Z,6.63
2022-07-31T21:41:09.484Z,5.65
2022-07-31T21:43:59.143Z,6.05
2022-07-31T21:46:29.660Z,6.28
2022-07-31T21:48:58.630Z,8.15
2022-07-31T21:51:27.661Z,6.43
2022-07-31T21:53:56.052Z,5.45
2022-07-31T21:56:24.447Z,6.00
2022-07-31T21:58:52.852Z,5.47
2022-07-31T22:01:23.446Z,5.25
2022-07-31T22:03:53.238Z,5.95
2022-07-31T22:06:38.938Z,5.38
2022-07-31T22:09:07.346Z,5.72
2022-07-31T22:11:36.268Z,5.18
2022-07-31T22:14:04.632Z,5.57
2022-07-31T22:16:33.026Z,5.57
2022-07-31T22:19:03.373Z,5.22
2022-07-31T22:21:31.947Z,4.90
2022-07-31T22:24:00.714Z,5.22
2022-07-31T22:26:29.961Z,5.55
2022-07-31T22:28:58.724Z,5.00
2022-07-31T22:31:28.741Z,4.80
2022-07-31T22:33:57.313Z,6.07
2022-07-31T22:36:28.119Z,5.28
2022-07-31T22:38:57.554Z,5.65
2022-07-31T22:41:28.654Z,5.30
2022-07-31T22:44:12.037Z,5.75
2022-07-31T22:46:43.276Z,5.82
2022-07-31T22:49:12.347Z,6.20
2022-07-31T22:51:46.208Z,4.68
2022-07-31T22:54:15.229Z,5.63
2022-07-31T22:56:43.559Z,5.40
2022-07-31T22:59:11.918Z,7.95
2022-07-31T23:01:40.403Z,6.40
2022-07-31T23:04:08.853Z,7.40
2022-07-31T23:06:37.262Z,7.28
2022-07-31T23:09:06.987Z,7.93
2022-07-31T23:11:35.331Z,7.68
2022-07-31T23:14:03.689Z,7.97
2022-07-31T23:16:32.198Z,6.90
2022-07-31T23:19:03.533Z,6.60
2022-07-31T23:21:32.023Z,7.05
2022-07-31T23:24:00.450Z,7.65
2022-07-31T23:26:30.266Z,6.22
2022-07-31T23:28:58.683Z,7.22
2022-07-31T23:31:27.062Z,6.32
2022-07-31T23:33:55.638Z,7.35
2022-07-31T23:36:24.548Z,6.05
2022-07-31T23:38:52.941Z,7.20
2022-07-31T23:41:35.178Z,5.57
2022-07-31T23:44:06.539Z,6.95
2022-07-31T23:49:09.587Z,5.13
2022-07-31T23:51:38.182Z,5.30
2022-07-31T23:54:07.577Z,6.05
2022-07-31T23:56:36.087Z,5.82
2022-07-31T23:59:05.841Z,5.60
